sensor_id;sensor_type;location;lat;lon;timestamp;P1;durP1;ratioP1;P2;durP2;ratioP2
47725;SDS011;33483;48.294;16.388;2022-11-20T00:01:09;25.45;;;14.02;;
47725;SDS011;33483;48.294;16.388;2022-11-20T00:03:40;26.15;;;13.95;;
47725;SDS011;33483;48.294;16.388;2022-11-20T00:06:10;25.15;;;14.23;;
47725;SDS011;33483;48.294;16.388;2022-11-20T00:08:38;27.80;;;13.82;;
47725;SDS011;33483;48.294;16.388;2022-11-20T00:11:07;26.98;;;15.13;;
47725;SDS011;33483;48.294;16.388;2022-11-20T00:13:45;32.10;;;14.90;;
47725;SDS011;33483;48.294;16.388;2022-11-20T00:16:15;28.38;;;15.07;;
47725;SDS011;33483;48.294;16.388;2022-11-20T00:18:43;26.58;;;14.05;;
47725;SDS011;33483;48.294;16.388;2022-11-20T00:21:12;26.92;;;13.63;;
47725;SDS011;33483;48.294;16.388;2022-11-20T00:23:41;26.13;;;14.35;;
47725;SDS011;33483;48.294;16.388;2022-11-20T00:26:10;26.40;;;14.25;;
47725;SDS011;33483;48.294;16.388;2022-11-20T00:28:43;27.42;;;14.43;;
47725;SDS011;33483;48.294;16.388;2022-11-20T00:31:12;28.00;;;15.15;;
47725;SDS011;33483;48.294;16.388;2022-11-20T00:33:41;27.98;;;14.85;;
47725;SDS011;33483;48.294;16.388;2022-11-20T00:36:10;28.88;;;14.07;;
47725;SDS011;33483;48.294;16.388;2022-11-20T00:38:55;30.88;;;14.88;;
47725;SDS011;33483;48.294;16.388;2022-11-20T00:41:24;28.57;;;14.47;;
47725;SDS011;33483;48.294;16.388;2022-11-20T00:43:53;28.48;;;15.57;;
47725;SDS011;33483;48.294;16.388;2022-11-20T00:46:22;27.05;;;15.10;;
47725;SDS011;33483;48.294;16.388;2022-11-20T00:48:51;26.75;;;14.52;;
47725;SDS011;33483;48.294;16.388;2022-11-20T00:51:20;28.92;;;16.13;;
47725;SDS011;33483;48.294;16.388;2022-11-20T00:53:54;28.40;;;15.80;;
47725;SDS011;33483;48.294;16.388;2022-11-20T00:56:22;30.20;;;16.05;;
47725;SDS011;33483;48.294;16.388;2022-11-20T00:58:49;29.20;;;15.60;;
47725;SDS011;33483;48.294;16.388;2022-11-20T01:01:22;28.15;;;15.38;;
47725;SDS011;33483;48.294;16.388;2022-11-20T01:03:53;31.25;;;15.52;;
47725;SDS011;33483;48.294;16.388;2022-11-20T01:08:50;25.77;;;15.75;;
47725;SDS011;33483;48.294;16.388;2022-11-20T01:11:24;29.27;;;15.60;;
47725;SDS011;33483;48.294;16.388;2022-11-20T01:13:53;27.58;;;15.27;;
47725;SDS011;33483;48.294;16.388;2022-11-20T01:16:26;30.58;;;15.73;;
47725;SDS011;33483;48.294;16.388;2022-11-20T01:19:04;30.35;;;15.95;;
47725;SDS011;33483;48.294;16.388;2022-11-20T01:21:34;28.38;;;15.15;;
47725;SDS011;33483;48.294;16.388;2022-11-20T01:24:03;30.58;;;15.73;;
47725;SDS011;33483;48.294;16.388;2022-11-20T01:26:35;30.38;;;15.95;;
47725;SDS011;33483;48.294;16.388;2022-11-20T01:29:04;30.20;;;15.60;;
47725;SDS011;33483;48.294;16.388;2022-11-20T01:31:33;31.83;;;16.52;;
47725;SDS011;33483;48.294;16.388;2022-11-20T01:34:06;31.85;;;16.63;;
47725;SDS011;33483;48.294;16.388;2022-11-20T01:36:36;29.65;;;16.35;;
47725;SDS011;33483;48.294;16.388;2022-11-20T01:39:11;30.58;;;15.82;;
47725;SDS011;33483;48.294;16.388;2022-11-20T01:41:38;28.33;;;15.65;;
47725;SDS011;33483;48.294;16.388;2022-11-20T01:47:39;28.63;;;15.80;;
47725;SDS011;33483;48.294;16.388;2022-11-20T01:50:15;27.70;;;15.70;;
47725;SDS011;33483;48.294;16.388;2022-11-20T01:52:48;30.50;;;16.27;;
47725;SDS011;33483;48.294;16.388;2022-11-20T01:55:21;31.65;;;16.42;;
47725;SDS011;33483;48.294;16.388;2022-11-20T01:57:52;29.42;;;15.73;;
47725;SDS011;33483;48.294;16.388;2022-11-20T02:00:20;32.30;;;16.73;;
47725;SDS011;33483;48.294;16.388;2022-11-20T02:02:55;29.42;;;15.70;;
47725;SDS011;33483;48.294;16.388;2022-11-20T02:05:28;32.88;;;16.42;;
47725;SDS011;33483;48.294;16.388;2022-11-20T02:08:01;22.63;;;12.47;;
47725;SDS011;33483;48.294;16.388;2022-11-20T02:10:30;30.08;;;15.55;;
47725;SDS011;33483;48.294;16.388;2022-11-20T02:12:57;29.63;;;15.43;;
47725;SDS011;33483;48.294;16.388;2022-11-20T02:15:44;29.27;;;15.07;;
47725;SDS011;33483;48.294;16.388;2022-11-20T02:18:14;29.67;;;16.40;;
47725;SDS011;33483;48.294;16.388;2022-11-20T02:20:44;32.65;;;16.27;;
47725;SDS011;33483;48.294;16.388;2022-11-20T02:25:53;26.00;;;15.27;;
47725;SDS011;33483;48.294;16.388;2022-11-20T02:28:21;31.20;;;16.60;;
47725;SDS011;33483;48.294;16.388;2022-11-20T02:30:49;31.38;;;16.52;;
47725;SDS011;33483;48.294;16.388;2022-11-20T02:33:16;32.85;;;16.30;;
47725;SDS011;33483;48.294;16.388;2022-11-20T02:35:44;32.47;;;16.15;;
47725;SDS011;33483;48.294;16.388;2022-11-20T02:38:13;31.88;;;16.02;;
47725;SDS011;33483;48.294;16.388;2022-11-20T02:40:41;29.55;;;16.05;;
47725;SDS011;33483;48.294;16.388;2022-11-20T02:43:09;30.90;;;16.58;;
47725;SDS011;33483;48.294;16.388;2022-11-20T02:45:39;33.15;;;16.48;;
47725;SDS011;33483;48.294;16.388;2022-11-20T02:48:06;26.77;;;14.93;;
47725;SDS011;33483;48.294;16.388;2022-11-20T02:50:36;33.88;;;16.33;;
47725;SDS011;33483;48.294;16.388;2022-11-20T02:53:04;27.98;;;15.43;;
47725;SDS011;33483;48.294;16.388;2022-11-20T02:55:31;25.85;;;15.00;;
47725;SDS011;33483;48.294;16.388;2022-11-20T02:57:58;29.75;;;16.33;;
47725;SDS011;33483;48.294;16.388;2022-11-20T03:00:25;30.13;;;15.80;;
47725;SDS011;33483;48.294;16.388;2022-11-20T03:02:52;33.45;;;16.00;;
47725;SDS011;33483;48.294;16.388;2022-11-20T03:05:19;30.85;;;15.60;;
47725;SDS011;33483;48.294;16.388;2022-11-20T03:07:46;30.42;;;15.40;;
47725;SDS011;33483;48.294;16.388;2022-11-20T03:10:14;32.58;;;16.23;;
47725;SDS011;33483;48.294;16.388;2022-11-20T03:12:41;29.65;;;15.68;;
47725;SDS011;33483;48.294;16.388;2022-11-20T03:15:08;30.88;;;16.75;;
47725;SDS011;33483;48.294;16.388;2022-11-20T03:17:35;31.40;;;15.43;;
47725;SDS011;33483;48.294;16.388;2022-11-20T03:20:03;30.80;;;16.67;;
47725;SDS011;33483;48.294;16.388;2022-11-20T03:22:33;31.00;;;16.38;;
47725;SDS011;33483;48.294;16.388;2022-11-20T03:25:00;32.22;;;16.88;;
47725;SDS011;33483;48.294;16.388;2022-11-20T03:27:31;32.42;;;15.75;;
47725;SDS011;33483;48.294;16.388;2022-11-20T03:30:04;31.73;;;16.90;;
47725;SDS011;33483;48.294;16.388;2022-11-20T03:32:32;33.30;;;16.33;;
47725;SDS011;33483;48.294;16.388;2022-11-20T03:35:00;35.05;;;16.92;;
47725;SDS011;33483;48.294;16.388;2022-11-20T03:37:27;33.00;;;17.90;;
47725;SDS011;33483;48.294;16.388;2022-11-20T03:39:54;33.70;;;16.67;;
47725;SDS011;33483;48.294;16.388;2022-11-20T03:42:21;35.92;;;17.50;;
47725;SDS011;33483;48.294;16.388;2022-11-20T03:45:07;34.13;;;16.50;;
47725;SDS011;33483;48.294;16.388;2022-11-20T03:47:34;31.42;;;16.80;;
47725;SDS011;33483;48.294;16.388;2022-11-20T03:50:01;33.47;;;17.02;;
47725;SDS011;33483;48.294;16.388;2022-11-20T03:52:29;34.80;;;17.08;;
47725;SDS011;33483;48.294;16.388;2022-11-20T03:54:59;34.42;;;17.38;;
47725;SDS011;33483;48.294;16.388;2022-11-20T03:57:28;36.63;;;17.30;;
47725;SDS011;33483;48.294;16.388;2022-11-20T03:59:56;35.55;;;17.58;;
47725;SDS011;33483;48.294;16.388;2022-11-20T04:02:24;32.88;;;17.27;;
47725;SDS011;33483;48.294;16.388;2022-11-20T04:04:51;31.38;;;17.35;;
47725;SDS011;33483;48.294;16.388;2022-11-20T04:07:18;31.55;;;17.17;;
47725;SDS011;33483;48.294;16.388;2022-11-20T04:09:45;34.63;;;17.63;;
47725;SDS011;33483;48.294;16.388;2022-11-20T04:12:12;31.65;;;16.75;;
47725;SDS011;33483;48.294;16.388;2022-11-20T04:14:39;33.50;;;17.65;;
47725;SDS011;33483;48.294;16.388;2022-11-20T04:17:07;37.10;;;17.23;;
47725;SDS011;33483;48.294;16.388;2022-11-20T04:19:36;37.40;;;16.92;;
47725;SDS011;33483;48.294;16.388;2022-11-20T04:22:03;34.65;;;17.80;;
47725;SDS011;33483;48.294;16.388;2022-11-20T04:24:31;33.95;;;17.02;;
47725;SDS011;33483;48.294;16.388;2022-11-20T04:26:57;35.05;;;18.65;;
47725;SDS011;33483;48.294;16.388;2022-11-20T04:29:25;36.20;;;18.65;;
47725;SDS011;33483;48.294;16.388;2022-11-20T04:31:52;35.20;;;17.38;;
47725;SDS011;33483;48.294;16.388;2022-11-20T04:34:19;33.40;;;18.17;;
47725;SDS011;33483;48.294;16.388;2022-11-20T04:36:46;34.40;;;18.00;;
47725;SDS011;33483;48.294;16.388;2022-11-20T04:39:14;35.38;;;18.92;;
47725;SDS011;33483;48.294;16.388;2022-11-20T04:41:46;35.25;;;19.23;;
47725;SDS011;33483;48.294;16.388;2022-11-20T04:44:13;34.58;;;18.35;;
47725;SDS011;33483;48.294;16.388;2022-11-20T04:46:41;38.10;;;18.92;;
47725;SDS011;33483;48.294;16.388;2022-11-20T04:49:10;37.47;;;18.05;;
47725;SDS011;33483;48.294;16.388;2022-11-20T04:51:38;35.78;;;18.05;;
47725;SDS011;33483;48.294;16.388;2022-11-20T04:54:05;38.75;;;19.05;;
47725;SDS011;33483;48.294;16.388;2022-11-20T04:56:32;36.97;;;18.25;;
47725;SDS011;33483;48.294;16.388;2022-11-20T04:59:02;35.88;;;18.17;;
47725;SDS011;33483;48.294;16.388;2022-11-20T05:01:29;35.13;;;17.52;;
47725;SDS011;33483;48.294;16.388;2022-11-20T05:03:57;37.17;;;19.58;;
47725;SDS011;33483;48.294;16.388;2022-11-20T05:06:24;33.22;;;17.70;;
47725;SDS011;33483;48.294;16.388;2022-11-20T05:08:51;36.15;;;18.67;;
47725;SDS011;33483;48.294;16.388;2022-11-20T05:11:19;34.25;;;17.95;;
47725;SDS011;33483;48.294;16.388;2022-11-20T05:13:48;36.78;;;18.80;;
47725;SDS011;33483;48.294;16.388;2022-11-20T05:16:20;35.30;;;17.75;;
47725;SDS011;33483;48.294;16.388;2022-11-20T05:18:49;38.65;;;19.48;;
47725;SDS011;33483;48.294;16.388;2022-11-20T05:21:18;36.92;;;20.20;;
47725;SDS011;33483;48.294;16.388;2022-11-20T05:23:48;37.28;;;19.15;;
47725;SDS011;33483;48.294;16.388;2022-11-20T05:26:20;38.28;;;19.88;;
47725;SDS011;33483;48.294;16.388;2022-11-20T05:28:49;38.85;;;19.65;;
47725;SDS011;33483;48.294;16.388;2022-11-20T05:31:20;34.20;;;18.20;;
47725;SDS011;33483;48.294;16.388;2022-11-20T05:33:54;34.65;;;18.73;;
47725;SDS011;33483;48.294;16.388;2022-11-20T05:36:23;37.25;;;19.08;;
47725;SDS011;33483;48.294;16.388;2022-11-20T05:38:50;37.25;;;18.80;;
47725;SDS011;33483;48.294;16.388;2022-11-20T05:41:22;35.33;;;19.05;;
47725;SDS011;33483;48.294;16.388;2022-11-20T05:43:49;38.10;;;19.45;;
47725;SDS011;33483;48.294;16.388;2022-11-20T05:46:18;35.08;;;18.30;;
47725;SDS011;33483;48.294;16.388;2022-11-20T05:48:53;33.85;;;18.50;;
47725;SDS011;33483;48.294;16.388;2022-11-20T05:51:21;36.47;;;18.85;;
47725;SDS011;33483;48.294;16.388;2022-11-20T05:53:48;36.58;;;19.08;;
47725;SDS011;33483;48.294;16.388;2022-11-20T05:56:16;37.40;;;18.90;;
47725;SDS011;33483;48.294;16.388;2022-11-20T05:58:47;36.28;;;18.35;;
47725;SDS011;33483;48.294;16.388;2022-11-20T06:01:21;35.83;;;18.08;;
47725;SDS011;33483;48.294;16.388;2022-11-20T06:03:51;37.90;;;19.30;;
47725;SDS011;33483;48.294;16.388;2022-11-20T06:06:19;40.33;;;19.50;;
47725;SDS011;33483;48.294;16.388;2022-11-20T06:08:47;33.55;;;17.73;;
47725;SDS011;33483;48.294;16.388;2022-11-20T06:11:15;37.67;;;19.25;;
47725;SDS011;33483;48.294;16.388;2022-11-20T06:13:44;40.50;;;20.20;;
47725;SDS011;33483;48.294;16.388;2022-11-20T06:16:13;39.45;;;19.33;;
47725;SDS011;33483;48.294;16.388;2022-11-20T06:18:43;41.25;;;20.17;;
47725;SDS011;33483;48.294;16.388;2022-11-20T06:21:14;38.70;;;19.45;;
47725;SDS011;33483;48.294;16.388;2022-11-20T06:23:43;36.00;;;19.05;;
47725;SDS011;33483;48.294;16.388;2022-11-20T06:26:18;35.10;;;19.98;;
47725;SDS011;33483;48.294;16.388;2022-11-20T06:28:50;37.65;;;19.25;;
47725;SDS011;33483;48.294;16.388;2022-11-20T06:31:19;37.22;;;19.80;;
47725;SDS011;33483;48.294;16.388;2022-11-20T06:33:51;35.50;;;17.98;;
47725;SDS011;33483;48.294;16.388;2022-11-20T06:36:19;38.13;;;19.70;;
47725;SDS011;33483;48.294;16.388;2022-11-20T06:38:48;37.63;;;20.17;;
47725;SDS011;33483;48.294;16.388;2022-11-20T06:41:17;38.72;;;20.17;;
47725;SDS011;33483;48.294;16.388;2022-11-20T06:43:45;35.88;;;18.67;;
47725;SDS011;33483;48.294;16.388;2022-11-20T06:46:13;35.92;;;18.50;;
47725;SDS011;33483;48.294;16.388;2022-11-20T06:48:44;39.30;;;20.45;;
47725;SDS011;33483;48.294;16.388;2022-11-20T06:51:15;36.75;;;19.73;;
47725;SDS011;33483;48.294;16.388;2022-11-20T06:53:42;38.97;;;20.20;;
47725;SDS011;33483;48.294;16.388;2022-11-20T06:56:10;37.97;;;19.90;;
47725;SDS011;33483;48.294;16.388;2022-11-20T06:58:37;35.92;;;19.35;;
47725;SDS011;33483;48.294;16.388;2022-11-20T07:01:09;42.28;;;20.45;;
47725;SDS011;33483;48.294;16.388;2022-11-20T07:03:38;37.15;;;20.00;;
47725;SDS011;33483;48.294;16.388;2022-11-20T07:06:06;38.55;;;19.73;;
47725;SDS011;33483;48.294;16.388;2022-11-20T07:08:34;37.72;;;20.35;;
47725;SDS011;33483;48.294;16.388;2022-11-20T07:11:02;41.65;;;21.05;;
47725;SDS011;33483;48.294;16.388;2022-11-20T07:13:31;39.22;;;19.77;;
47725;SDS011;33483;48.294;16.388;2022-11-20T07:16:00;36.30;;;18.63;;
47725;SDS011;33483;48.294;16.388;2022-11-20T07:18:28;37.55;;;19.70;;
47725;SDS011;33483;48.294;16.388;2022-11-20T07:20:56;37.15;;;19.35;;
47725;SDS011;33483;48.294;16.388;2022-11-20T07:23:26;39.22;;;21.35;;
47725;SDS011;33483;48.294;16.388;2022-11-20T07:25:55;38.42;;;19.73;;
47725;SDS011;33483;48.294;16.388;2022-11-20T07:28:22;41.80;;;19.65;;
47725;SDS011;33483;48.294;16.388;2022-11-20T07:30:53;40.95;;;21.08;;
47725;SDS011;33483;48.294;16.388;2022-11-20T07:33:20;38.17;;;20.30;;
47725;SDS011;33483;48.294;16.388;2022-11-20T07:35:47;38.30;;;20.40;;
47725;SDS011;33483;48.294;16.388;2022-11-20T07:38:14;40.65;;;20.17;;
47725;SDS011;33483;48.294;16.388;2022-11-20T07:40:42;36.55;;;20.40;;
47725;SDS011;33483;48.294;16.388;2022-11-20T07:43:11;38.45;;;20.75;;
47725;SDS011;33483;48.294;16.388;2022-11-20T07:45:38;37.05;;;20.10;;
47725;SDS011;33483;48.294;16.388;2022-11-20T07:48:06;38.72;;;21.27;;
47725;SDS011;33483;48.294;16.388;2022-11-20T07:50:33;39.95;;;20.33;;
47725;SDS011;33483;48.294;16.388;2022-11-20T07:53:01;44.45;;;20.30;;
47725;SDS011;33483;48.294;16.388;2022-11-20T07:55:33;38.08;;;20.00;;
47725;SDS011;33483;48.294;16.388;2022-11-20T07:58:00;40.28;;;20.75;;
47725;SDS011;33483;48.294;16.388;2022-11-20T08:00:27;43.90;;;19.90;;
47725;SDS011;33483;48.294;16.388;2022-11-20T08:02:55;39.20;;;20.45;;
47725;SDS011;33483;48.294;16.388;2022-11-20T08:05:27;38.78;;;20.88;;
47725;SDS011;33483;48.294;16.388;2022-11-20T08:07:55;37.83;;;19.85;;
47725;SDS011;33483;48.294;16.388;2022-11-20T08:10:22;38.47;;;20.55;;
47725;SDS011;33483;48.294;16.388;2022-11-20T08:12:50;38.55;;;21.05;;
47725;SDS011;33483;48.294;16.388;2022-11-20T08:15:37;39.40;;;20.35;;
47725;SDS011;33483;48.294;16.388;2022-11-20T08:18:06;45.88;;;20.30;;
47725;SDS011;33483;48.294;16.388;2022-11-20T08:21:01;42.22;;;19.73;;
47725;SDS011;33483;48.294;16.388;2022-11-20T08:23:30;37.60;;;20.38;;
47725;SDS011;33483;48.294;16.388;2022-11-20T08:25:57;40.72;;;20.70;;
47725;SDS011;33483;48.294;16.388;2022-11-20T08:28:25;40.83;;;20.60;;
47725;SDS011;33483;48.294;16.388;2022-11-20T08:30:57;42.63;;;20.23;;
47725;SDS011;33483;48.294;16.388;2022-11-20T08:33:25;38.10;;;19.65;;
47725;SDS011;33483;48.294;16.388;2022-11-20T08:35:52;39.83;;;20.42;;
47725;SDS011;33483;48.294;16.388;2022-11-20T08:38:20;44.80;;;20.45;;
47725;SDS011;33483;48.294;16.388;2022-11-20T08:40:47;37.30;;;19.77;;
47725;SDS011;33483;48.294;16.388;2022-11-20T08:43:34;40.45;;;20.33;;
47725;SDS011;33483;48.294;16.388;2022-11-20T08:46:01;43.88;;;22.25;;
47725;SDS011;33483;48.294;16.388;2022-11-20T08:48:31;42.13;;;20.92;;
47725;SDS011;33483;48.294;16.388;2022-11-20T08:50:58;42.83;;;21.98;;
47725;SDS011;33483;48.294;16.388;2022-11-20T08:53:26;40.38;;;20.58;;
47725;SDS011;33483;48.294;16.388;2022-11-20T08:55:54;39.15;;;20.20;;
47725;SDS011;33483;48.294;16.388;2022-11-20T08:58:21;40.30;;;20.15;;
47725;SDS011;33483;48.294;16.388;2022-11-20T09:00:49;40.30;;;21.20;;
47725;SDS011;33483;48.294;16.388;2022-11-20T09:03:16;39.42;;;20.40;;
47725;SDS011;33483;48.294;16.388;2022-11-20T09:05:43;36.40;;;20.58;;
47725;SDS011;33483;48.294;16.388;2022-11-20T09:08:10;43.20;;;21.80;;
47725;SDS011;33483;48.294;16.388;2022-11-20T09:10:38;41.22;;;20.90;;
47725;SDS011;33483;48.294;16.388;2022-11-20T09:13:13;40.22;;;20.33;;
47725;SDS011;33483;48.294;16.388;2022-11-20T09:15:40;44.85;;;21.73;;
47725;SDS011;33483;48.294;16.388;2022-11-20T09:18:08;42.58;;;21.35;;
47725;SDS011;33483;48.294;16.388;2022-11-20T09:20:35;42.80;;;21.63;;
47725;SDS011;33483;48.294;16.388;2022-11-20T09:23:03;42.03;;;20.77;;
47725;SDS011;33483;48.294;16.388;2022-11-20T09:25:30;41.38;;;21.58;;
47725;SDS011;33483;48.294;16.388;2022-11-20T09:27:58;43.63;;;20.60;;
47725;SDS011;33483;48.294;16.388;2022-11-20T09:30:26;42.17;;;21.08;;
47725;SDS011;33483;48.294;16.388;2022-11-20T09:32:54;45.80;;;23.25;;
47725;SDS011;33483;48.294;16.388;2022-11-20T09:35:21;44.85;;;22.90;;
47725;SDS011;33483;48.294;16.388;2022-11-20T09:37:49;43.10;;;21.75;;
47725;SDS011;33483;48.294;16.388;2022-11-20T09:40:20;45.42;;;20.65;;
47725;SDS011;33483;48.294;16.388;2022-11-20T09:56:37;60.15;;;28.13;;
47725;SDS011;33483;48.294;16.388;2022-11-20T09:59:23;43.33;;;22.20;;
47725;SDS011;33483;48.294;16.388;2022-11-20T10:01:59;48.97;;;22.95;;
47725;SDS011;33483;48.294;16.388;2022-11-20T10:04:28;44.20;;;21.73;;
47725;SDS011;33483;48.294;16.388;2022-11-20T10:07:12;42.42;;;22.25;;
47725;SDS011;33483;48.294;16.388;2022-11-20T10:09:58;41.38;;;22.48;;
47725;SDS011;33483;48.294;16.388;2022-11-20T10:12:34;47.53;;;24.33;;
47725;SDS011;33483;48.294;16.388;2022-11-20T10:23:34;42.83;;;21.70;;
47725;SDS011;33483;48.294;16.388;2022-11-20T10:31:31;45.55;;;22.73;;
47725;SDS011;33483;48.294;16.388;2022-11-20T10:34:12;41.20;;;21.52;;
47725;SDS011;33483;48.294;16.388;2022-11-20T10:36:59;44.25;;;21.80;;
47725;SDS011;33483;48.294;16.388;2022-11-20T10:42:34;43.97;;;21.92;;
47725;SDS011;33483;48.294;16.388;2022-11-20T10:45:11;43.35;;;22.27;;
47725;SDS011;33483;48.294;16.388;2022-11-20T10:47:54;44.92;;;23.40;;
47725;SDS011;33483;48.294;16.388;2022-11-20T10:50:39;41.58;;;22.83;;
47725;SDS011;33483;48.294;16.388;2022-11-20T10:53:18;41.83;;;22.75;;
47725;SDS011;33483;48.294;16.388;2022-11-20T10:56:02;44.10;;;22.23;;
47725;SDS011;33483;48.294;16.388;2022-11-20T11:01:15;46.13;;;24.73;;
47725;SDS011;33483;48.294;16.388;2022-11-20T11:03:45;45.25;;;23.95;;
47725;SDS011;33483;48.294;16.388;2022-11-20T11:06:17;45.13;;;23.90;;
47725;SDS011;33483;48.294;16.388;2022-11-20T11:08:47;55.30;;;28.42;;
47725;SDS011;33483;48.294;16.388;2022-11-20T11:13:50;41.50;;;23.83;;
47725;SDS011;33483;48.294;16.388;2022-11-20T11:18:48;51.85;;;24.75;;
47725;SDS011;33483;48.294;16.388;2022-11-20T11:21:24;45.28;;;23.15;;
47725;SDS011;33483;48.294;16.388;2022-11-20T11:23:59;44.88;;;24.05;;
47725;SDS011;33483;48.294;16.388;2022-11-20T11:26:58;44.00;;;23.65;;
47725;SDS011;33483;48.294;16.388;2022-11-20T11:29:31;39.15;;;23.05;;
47725;SDS011;33483;48.294;16.388;2022-11-20T11:34:42;49.35;;;24.88;;
47725;SDS011;33483;48.294;16.388;2022-11-20T11:37:15;59.67;;;31.55;;
47725;SDS011;33483;48.294;16.388;2022-11-20T11:39:45;51.58;;;28.05;;
47725;SDS011;33483;48.294;16.388;2022-11-20T11:42:29;43.58;;;24.00;;
47725;SDS011;33483;48.294;16.388;2022-11-20T11:44:58;47.30;;;25.67;;
47725;SDS011;33483;48.294;16.388;2022-11-20T11:47:36;46.58;;;25.20;;
47725;SDS011;33483;48.294;16.388;2022-11-20T11:52:41;45.70;;;24.77;;
47725;SDS011;33483;48.294;16.388;2022-11-20T12:00:53;46.42;;;24.58;;
47725;SDS011;33483;48.294;16.388;2022-11-20T12:03:34;46.20;;;24.45;;
47725;SDS011;33483;48.294;16.388;2022-11-20T12:06:10;51.22;;;25.88;;
47725;SDS011;33483;48.294;16.388;2022-11-20T12:16:45;46.67;;;24.67;;
47725;SDS011;33483;48.294;16.388;2022-11-20T12:19:13;43.97;;;24.63;;
47725;SDS011;33483;48.294;16.388;2022-11-20T12:53:04;40.85;;;23.10;;
47725;SDS011;33483;48.294;16.388;2022-11-20T12:58:27;40.20;;;22.98;;
47725;SDS011;33483;48.294;16.388;2022-11-20T13:07:06;47.63;;;25.70;;
47725;SDS011;33483;48.294;16.388;2022-11-20T13:09:43;48.83;;;25.65;;
47725;SDS011;33483;48.294;16.388;2022-11-20T13:17:54;44.95;;;24.02;;
47725;SDS011;33483;48.294;16.388;2022-11-20T13:20:26;44.75;;;23.83;;
47725;SDS011;33483;48.294;16.388;2022-11-20T13:22:54;42.13;;;23.63;;
47725;SDS011;33483;48.294;16.388;2022-11-20T13:25:37;44.35;;;23.95;;
47725;SDS011;33483;48.294;16.388;2022-11-20T13:30:49;40.60;;;23.45;;
47725;SDS011;33483;48.294;16.388;2022-11-20T13:33:27;43.80;;;24.30;;
47725;SDS011;33483;48.294;16.388;2022-11-20T13:38:42;44.65;;;23.90;;
47725;SDS011;33483;48.294;16.388;2022-11-20T13:41:23;44.78;;;23.65;;
47725;SDS011;33483;48.294;16.388;2022-11-20T13:44:20;47.67;;;25.67;;
47725;SDS011;33483;48.294;16.388;2022-11-20T13:47:04;45.08;;;25.27;;
47725;SDS011;33483;48.294;16.388;2022-11-20T13:49:48;45.25;;;25.33;;
47725;SDS011;33483;48.294;16.388;2022-11-20T13:52:31;45.53;;;26.10;;
47725;SDS011;33483;48.294;16.388;2022-11-20T14:00:44;48.83;;;26.75;;
47725;SDS011;33483;48.294;16.388;2022-11-20T14:03:22;49.85;;;26.75;;
47725;SDS011;33483;48.294;16.388;2022-11-20T14:06:13;53.25;;;27.55;;
47725;SDS011;33483;48.294;16.388;2022-11-20T14:08:51;49.95;;;26.73;;
47725;SDS011;33483;48.294;16.388;2022-11-20T14:11:23;51.13;;;26.50;;
47725;SDS011;33483;48.294;16.388;2022-11-20T14:14:13;47.17;;;25.13;;
47725;SDS011;33483;48.294;16.388;2022-11-20T14:16:46;47.85;;;25.90;;
47725;SDS011;33483;48.294;16.388;2022-11-20T14:19:23;49.28;;;26.45;;
47725;SDS011;33483;48.294;16.388;2022-11-20T14:22:07;50.00;;;27.13;;
47725;SDS011;33483;48.294;16.388;2022-11-20T14:24:35;45.22;;;25.63;;
47725;SDS011;33483;48.294;16.388;2022-11-20T14:27:09;46.78;;;25.63;;
47725;SDS011;33483;48.294;16.388;2022-11-20T14:29:40;50.00;;;25.50;;
47725;SDS011;33483;48.294;16.388;2022-11-20T14:32:10;47.83;;;25.98;;
47725;SDS011;33483;48.294;16.388;2022-11-20T14:34:43;46.70;;;26.33;;
47725;SDS011;33483;48.294;16.388;2022-11-20T14:37:17;56.72;;;29.90;;
47725;SDS011;33483;48.294;16.388;2022-11-20T14:39:50;63.87;;;33.50;;
47725;SDS011;33483;48.294;16.388;2022-11-20T14:42:21;49.90;;;27.15;;
47725;SDS011;33483;48.294;16.388;2022-11-20T14:44:51;107.95;;;43.83;;
47725;SDS011;33483;48.294;16.388;2022-11-20T14:47:25;97.95;;;42.97;;
47725;SDS011;33483;48.294;16.388;2022-11-20T14:49:56;71.20;;;33.03;;
47725;SDS011;33483;48.294;16.388;2022-11-20T14:52:33;64.18;;;33.33;;
47725;SDS011;33483;48.294;16.388;2022-11-20T14:55:01;62.88;;;31.95;;
47725;SDS011;33483;48.294;16.388;2022-11-20T14:57:33;52.15;;;28.30;;
47725;SDS011;33483;48.294;16.388;2022-11-20T15:02:47;70.43;;;34.88;;
47725;SDS011;33483;48.294;16.388;2022-11-20T15:05:18;72.22;;;37.00;;
47725;SDS011;33483;48.294;16.388;2022-11-20T15:07:50;75.88;;;37.13;;
47725;SDS011;33483;48.294;16.388;2022-11-20T15:13:04;81.97;;;39.30;;
47725;SDS011;33483;48.294;16.388;2022-11-20T15:15:48;71.30;;;34.05;;
47725;SDS011;33483;48.294;16.388;2022-11-20T15:18:21;56.95;;;29.55;;
47725;SDS011;33483;48.294;16.388;2022-11-20T15:20:51;90.72;;;46.55;;
47725;SDS011;33483;48.294;16.388;2022-11-20T15:23:22;62.30;;;31.20;;
47725;SDS011;33483;48.294;16.388;2022-11-20T15:25:49;57.95;;;29.73;;
47725;SDS011;33483;48.294;16.388;2022-11-20T15:28:21;55.88;;;29.65;;
47725;SDS011;33483;48.294;16.388;2022-11-20T15:30:54;55.72;;;28.95;;
47725;SDS011;33483;48.294;16.388;2022-11-20T15:33:26;55.35;;;29.13;;
47725;SDS011;33483;48.294;16.388;2022-11-20T15:35:54;51.40;;;27.83;;
47725;SDS011;33483;48.294;16.388;2022-11-20T15:38:22;55.83;;;28.35;;
47725;SDS011;33483;48.294;16.388;2022-11-20T15:40:50;51.55;;;27.13;;
47725;SDS011;33483;48.294;16.388;2022-11-20T15:43:20;50.65;;;27.25;;
47725;SDS011;33483;48.294;16.388;2022-11-20T15:45:51;51.95;;;27.77;;
47725;SDS011;33483;48.294;16.388;2022-11-20T15:48:41;54.13;;;28.33;;
47725;SDS011;33483;48.294;16.388;2022-11-20T15:51:21;52.88;;;28.23;;
47725;SDS011;33483;48.294;16.388;2022-11-20T15:53:55;61.00;;;33.67;;
47725;SDS011;33483;48.294;16.388;2022-11-20T15:56:23;60.17;;;32.30;;
47725;SDS011;33483;48.294;16.388;2022-11-20T15:58:52;59.92;;;28.77;;
47725;SDS011;33483;48.294;16.388;2022-11-20T16:01:21;59.03;;;30.80;;
47725;SDS011;33483;48.294;16.388;2022-11-20T16:03:52;63.72;;;32.78;;
47725;SDS011;33483;48.294;16.388;2022-11-20T16:06:20;64.18;;;32.95;;
47725;SDS011;33483;48.294;16.388;2022-11-20T16:08:48;69.65;;;33.85;;
47725;SDS011;33483;48.294;16.388;2022-11-20T16:11:16;75.05;;;38.97;;
47725;SDS011;33483;48.294;16.388;2022-11-20T16:13:48;74.82;;;37.28;;
47725;SDS011;33483;48.294;16.388;2022-11-20T16:16:36;69.25;;;33.22;;
47725;SDS011;33483;48.294;16.388;2022-11-20T16:19:13;70.53;;;33.67;;
47725;SDS011;33483;48.294;16.388;2022-11-20T16:21:46;71.90;;;35.35;;
47725;SDS011;33483;48.294;16.388;2022-11-20T16:24:19;57.22;;;29.85;;
47725;SDS011;33483;48.294;16.388;2022-11-20T16:26:48;79.93;;;36.10;;
47725;SDS011;33483;48.294;16.388;2022-11-20T16:29:16;97.03;;;44.63;;
47725;SDS011;33483;48.294;16.388;2022-11-20T16:31:44;77.05;;;36.80;;
47725;SDS011;33483;48.294;16.388;2022-11-20T16:34:12;78.57;;;35.78;;
47725;SDS011;33483;48.294;16.388;2022-11-20T16:36:43;71.85;;;34.35;;
47725;SDS011;33483;48.294;16.388;2022-11-20T16:39:12;75.05;;;33.33;;